Humidity-temperature Sensor

Selected Measurement Type: Relative Humidity

 
Relative Humidity [%]     6 entries per hour
Showing data from 10/25/2021 (00:00:00 Z) to 10/24/2021 (00:01:00 Z)
Previous Next [ Day | 3-Days | 7-Days ]
First Last
Prev [ Day | 3-Days | 7-Days ] Next
First Last

Start Time:     :
End Time:     :     
Time (in GMT) :00 :50 :40 :30 :20 :10
Previous Next [ Day | 3-Days | 7-Days ]
First Last
Prev [ Day | 3-Days | 7-Days ] Next
First Last


123 => good data
MM => data is determined as missing
-- => data not received/configured
Back to Top Back to Top
10/25/2021 00:00 to 23:10 84.05 83.29 83.89 84.78 84.62 84.26
10/24/2021 23:00 to 22:10 82.95 84.30 83.35 83.39 83.95 85.65
10/24/2021 22:00 to 21:10 86.17 86.49 87.61 85.63 85.24 84.99
10/24/2021 21:00 to 20:10 84.62 84.62 84.59 84.80 84.66 84.80
10/24/2021 20:00 to 19:10 84.26 84.37 85.11 85.63 87.42 87.69
10/24/2021 19:00 to 18:10 88.83 89.38 88.71 88.34 89.85 90.43
10/24/2021 18:00 to 17:10 90.35 90.56 90.50 90.37 90.29 90.25
10/24/2021 17:00 to 16:10 90.46 90.56 90.87 91.77 91.56 88.46
10/24/2021 16:00 to 15:10 85.03 85.16 83.97 82.06 83.78 85.72
10/24/2021 15:00 to 14:10 87.40 87.21 87.34 86.42 85.51 86.13
10/24/2021 14:00 to 13:10 85.38 86.69 85.43 84.59 85.95 86.59
10/24/2021 13:00 to 12:10 88.07 88.17 87.69 87.42 87.57 88.23
10/24/2021 12:00 to 11:10 87.59 86.40 86.09 86.34 86.57 86.20
10/24/2021 11:00 to 10:10 85.38 84.82 84.22 85.59 85.41 84.99
10/24/2021 10:00 to 9:10 85.47 85.65 85.24 85.43 85.01 85.49
10/24/2021 09:00 to 8:10 86.28 86.11 85.03 85.20 84.37 84.72
10/24/2021 08:00 to 7:10 84.47 83.33 83.91 83.85 83.64 83.66
10/24/2021 07:00 to 6:10 85.05 85.16 84.35 84.41 84.82 85.26
10/24/2021 06:00 to 5:10 85.86 85.30 85.20 84.35 84.95 85.09
10/24/2021 05:00 to 4:10 84.70 84.01 83.83 83.04 82.12 82.64
10/24/2021 04:00 to 3:10 84.32 84.89 84.28 83.93 82.99 83.62
10/24/2021 03:00 to 2:10 84.12 83.10 83.04 82.93 82.89 81.91
10/24/2021 02:00 to 1:10 82.47 83.04 83.14 81.93 82.18 82.50
10/24/2021 01:00 to 0:10 82.66 82.66 82.41 82.10 81.85 81.96